sensor_id;sensor_type;location;lat;lon;timestamp;P1;durP1;ratioP1;P2;durP2;ratioP2
68375;SDS011;55318;52.068;5.188;2023-06-14T00:01:18;4.1;;;2.0;;
68375;SDS011;55318;52.068;5.188;2023-06-14T00:04:31;3.6;;;1.4;;
68375;SDS011;55318;52.068;5.188;2023-06-14T00:06:07;2.0;;;1.6;;
68375;SDS011;55318;52.068;5.188;2023-06-14T00:07:43;2.31;;;1.3;;
68375;SDS011;55318;52.068;5.188;2023-06-14T00:10:55;3.6;;;1.3;;
68375;SDS011;55318;52.068;5.188;2023-06-14T00:12:31;1.4;;;1.2;;
68375;SDS011;55318;52.068;5.188;2023-06-14T00:14:07;2.1;;;1.4;;
68375;SDS011;55318;52.068;5.188;2023-06-14T00:15:44;2.21;;;1.2;;
68375;SDS011;55318;52.068;5.188;2023-06-14T00:18:57;3.4;;;1.6;;
68375;SDS011;55318;52.068;5.188;2023-06-14T00:20:33;2.4;;;1.3;;
68375;SDS011;55318;52.068;5.188;2023-06-14T00:22:09;2.8;;;1.2;;
68375;SDS011;55318;52.068;5.188;2023-06-14T00:25:22;2.7;;;1.5;;
68375;SDS011;55318;52.068;5.188;2023-06-14T00:26:59;2.31;;;1.11;;
68375;SDS011;55318;52.068;5.188;2023-06-14T00:28:35;2.9;;;1.0;;
68375;SDS011;55318;52.068;5.188;2023-06-14T00:31:48;6.4;;;1.4;;
68375;SDS011;55318;52.068;5.188;2023-06-14T00:33:24;3.2;;;1.4;;
68375;SDS011;55318;52.068;5.188;2023-06-14T00:35:00;2.7;;;1.3;;
68375;SDS011;55318;52.068;5.188;2023-06-14T00:36:36;3.9;;;1.11;;
68375;SDS011;55318;52.068;5.188;2023-06-14T00:39:49;3.9;;;1.11;;
68375;SDS011;55318;52.068;5.188;2023-06-14T00:41:25;2.9;;;1.2;;
68375;SDS011;55318;52.068;5.188;2023-06-14T00:43:01;3.9;;;1.3;;
68375;SDS011;55318;52.068;5.188;2023-06-14T00:46:13;1.5;;;1.4;;
68375;SDS011;55318;52.068;5.188;2023-06-14T00:47:49;2.8;;;1.11;;
68375;SDS011;55318;52.068;5.188;2023-06-14T00:49:28;3.7;;;1.2;;
68375;SDS011;55318;52.068;5.188;2023-06-14T00:52:42;1.5;;;1.0;;
68375;SDS011;55318;52.068;5.188;2023-06-14T00:54:18;2.6;;;1.2;;
68375;SDS011;55318;52.068;5.188;2023-06-14T00:55:54;2.0;;;1.4;;
68375;SDS011;55318;52.068;5.188;2023-06-14T00:57:30;2.6;;;1.3;;
68375;SDS011;55318;52.068;5.188;2023-06-14T01:00:43;3.3;;;1.4;;
68375;SDS011;55318;52.068;5.188;2023-06-14T01:02:19;2.7;;;1.0;;
68375;SDS011;55318;52.068;5.188;2023-06-14T01:03:55;4.8;;;1.3;;
68375;SDS011;55318;52.068;5.188;2023-06-14T01:07:10;2.1;;;1.2;;
68375;SDS011;55318;52.068;5.188;2023-06-14T01:08:57;2.7;;;1.4;;
68375;SDS011;55318;52.068;5.188;2023-06-14T01:10:45;3.0;;;1.11;;
68375;SDS011;55318;52.068;5.188;2023-06-14T01:12:39;2.8;;;1.5;;
68375;SDS011;55318;52.068;5.188;2023-06-14T01:14:24;4.0;;;1.3;;
68375;SDS011;55318;52.068;5.188;2023-06-14T01:17:42;1.4;;;1.2;;
68375;SDS011;55318;52.068;5.188;2023-06-14T01:19:20;3.2;;;1.5;;
68375;SDS011;55318;52.068;5.188;2023-06-14T01:20:58;2.9;;;1.5;;
68375;SDS011;55318;52.068;5.188;2023-06-14T01:24:11;4.7;;;1.9;;
68375;SDS011;55318;52.068;5.188;2023-06-14T01:25:47;4.7;;;1.9;;
68375;SDS011;55318;52.068;5.188;2023-06-14T01:27:24;2.4;;;1.5;;
68375;SDS011;55318;52.068;5.188;2023-06-14T01:29:01;2.4;;;1.2;;
68375;SDS011;55318;52.068;5.188;2023-06-14T01:32:16;3.2;;;1.2;;
68375;SDS011;55318;52.068;5.188;2023-06-14T01:33:53;4.8;;;1.8;;
68375;SDS011;55318;52.068;5.188;2023-06-14T01:35:29;5.4;;;1.8;;
68375;SDS011;55318;52.068;5.188;2023-06-14T01:38:43;3.1;;;1.3;;
68375;SDS011;55318;52.068;5.188;2023-06-14T01:40:20;3.2;;;1.9;;
68375;SDS011;55318;52.068;5.188;2023-06-14T01:41:57;2.31;;;1.3;;
68375;SDS011;55318;52.068;5.188;2023-06-14T01:43:35;2.9;;;1.4;;
68375;SDS011;55318;52.068;5.188;2023-06-14T01:46:47;0.9;;;0.9;;
68375;SDS011;55318;52.068;5.188;2023-06-14T01:48:25;2.0;;;1.11;;
68375;SDS011;55318;52.068;5.188;2023-06-14T01:50:01;2.21;;;1.4;;
68375;SDS011;55318;52.068;5.188;2023-06-14T01:53:15;5.4;;;1.4;;
68375;SDS011;55318;52.068;5.188;2023-06-14T01:54:52;2.1;;;1.2;;
68375;SDS011;55318;52.068;5.188;2023-06-14T01:56:28;2.21;;;1.7;;
68375;SDS011;55318;52.068;5.188;2023-06-14T01:59:40;4.7;;;1.5;;
68375;SDS011;55318;52.068;5.188;2023-06-14T02:01:16;3.8;;;1.8;;
68375;SDS011;55318;52.068;5.188;2023-06-14T02:02:52;1.6;;;1.2;;
68375;SDS011;55318;52.068;5.188;2023-06-14T02:04:29;1.6;;;1.0;;
68375;SDS011;55318;52.068;5.188;2023-06-14T02:07:41;2.31;;;1.4;;
68375;SDS011;55318;52.068;5.188;2023-06-14T02:09:17;1.7;;;1.11;;
68375;SDS011;55318;52.068;5.188;2023-06-14T02:10:53;2.6;;;1.2;;
68375;SDS011;55318;52.068;5.188;2023-06-14T02:14:05;2.5;;;1.4;;
68375;SDS011;55318;52.068;5.188;2023-06-14T02:15:42;1.8;;;1.3;;
68375;SDS011;55318;52.068;5.188;2023-06-14T02:17:18;1.7;;;0.9;;
68375;SDS011;55318;52.068;5.188;2023-06-14T02:20:30;1.6;;;1.2;;
68375;SDS011;55318;52.068;5.188;2023-06-14T02:22:06;2.5;;;1.3;;
68375;SDS011;55318;52.068;5.188;2023-06-14T02:23:42;2.4;;;1.3;;
68375;SDS011;55318;52.068;5.188;2023-06-14T02:26:55;2.5;;;1.4;;
68375;SDS011;55318;52.068;5.188;2023-06-14T02:28:31;2.7;;;1.4;;
68375;SDS011;55318;52.068;5.188;2023-06-14T02:30:07;3.8;;;1.2;;
68375;SDS011;55318;52.068;5.188;2023-06-14T02:31:44;1.7;;;1.2;;
68375;SDS011;55318;52.068;5.188;2023-06-14T02:34:57;1.8;;;1.11;;
68375;SDS011;55318;52.068;5.188;2023-06-14T02:36:33;2.9;;;1.6;;
68375;SDS011;55318;52.068;5.188;2023-06-14T02:38:10;2.6;;;1.4;;
68375;SDS011;55318;52.068;5.188;2023-06-14T02:41:22;2.7;;;1.11;;
68375;SDS011;55318;52.068;5.188;2023-06-14T02:42:58;2.6;;;1.4;;
68375;SDS011;55318;52.068;5.188;2023-06-14T02:44:34;2.0;;;1.2;;
68375;SDS011;55318;52.068;5.188;2023-06-14T02:47:46;10.8;;;1.7;;
68375;SDS011;55318;52.068;5.188;2023-06-14T02:49:23;2.8;;;1.7;;
68375;SDS011;55318;52.068;5.188;2023-06-14T02:50:59;2.31;;;1.0;;
68375;SDS011;55318;52.068;5.188;2023-06-14T02:52:35;6.1;;;1.5;;
68375;SDS011;55318;52.068;5.188;2023-06-14T02:55:47;4.41;;;1.9;;
68375;SDS011;55318;52.068;5.188;2023-06-14T02:57:23;2.9;;;1.11;;
68375;SDS011;55318;52.068;5.188;2023-06-14T02:59:00;2.6;;;1.11;;
68375;SDS011;55318;52.068;5.188;2023-06-14T03:02:12;3.1;;;1.5;;
68375;SDS011;55318;52.068;5.188;2023-06-14T03:03:48;3.2;;;1.4;;
68375;SDS011;55318;52.068;5.188;2023-06-14T03:05:24;5.4;;;1.9;;
68375;SDS011;55318;52.068;5.188;2023-06-14T03:08:36;3.8;;;1.8;;
68375;SDS011;55318;52.068;5.188;2023-06-14T03:10:13;2.31;;;1.2;;
68375;SDS011;55318;52.068;5.188;2023-06-14T03:11:49;1.6;;;1.11;;
68375;SDS011;55318;52.068;5.188;2023-06-14T03:15:01;4.1;;;1.3;;
68375;SDS011;55318;52.068;5.188;2023-06-14T03:16:38;3.0;;;1.3;;
68375;SDS011;55318;52.068;5.188;2023-06-14T03:18:14;3.0;;;1.3;;
68375;SDS011;55318;52.068;5.188;2023-06-14T03:19:50;1.9;;;1.3;;
68375;SDS011;55318;52.068;5.188;2023-06-14T03:23:03;2.31;;;1.4;;
68375;SDS011;55318;52.068;5.188;2023-06-14T03:24:39;3.7;;;1.4;;
68375;SDS011;55318;52.068;5.188;2023-06-14T03:26:15;1.0;;;1.0;;
68375;SDS011;55318;52.068;5.188;2023-06-14T03:29:27;3.7;;;1.0;;
68375;SDS011;55318;52.068;5.188;2023-06-14T03:31:03;2.9;;;1.3;;
68375;SDS011;55318;52.068;5.188;2023-06-14T03:32:39;5.5;;;1.2;;
68375;SDS011;55318;52.068;5.188;2023-06-14T03:35:52;2.8;;;1.3;;
68375;SDS011;55318;52.068;5.188;2023-06-14T03:37:28;1.9;;;1.11;;
68375;SDS011;55318;52.068;5.188;2023-06-14T03:39:04;2.9;;;1.7;;
68375;SDS011;55318;52.068;5.188;2023-06-14T03:40:40;2.7;;;1.7;;
68375;SDS011;55318;52.068;5.188;2023-06-14T03:43:53;1.7;;;1.11;;
68375;SDS011;55318;52.068;5.188;2023-06-14T03:45:29;3.3;;;1.7;;
68375;SDS011;55318;52.068;5.188;2023-06-14T03:47:05;3.3;;;1.7;;
68375;SDS011;55318;52.068;5.188;2023-06-14T03:50:17;2.1;;;1.0;;
68375;SDS011;55318;52.068;5.188;2023-06-14T03:51:53;2.5;;;1.4;;
68375;SDS011;55318;52.068;5.188;2023-06-14T03:53:29;1.9;;;1.3;;
68375;SDS011;55318;52.068;5.188;2023-06-14T03:56:42;1.5;;;1.11;;
68375;SDS011;55318;52.068;5.188;2023-06-14T03:58:18;2.4;;;1.3;;
68375;SDS011;55318;52.068;5.188;2023-06-14T03:59:54;3.8;;;1.0;;
68375;SDS011;55318;52.068;5.188;2023-06-14T04:03:06;1.4;;;1.3;;
68375;SDS011;55318;52.068;5.188;2023-06-14T04:04:42;2.21;;;1.11;;
68375;SDS011;55318;52.068;5.188;2023-06-14T04:06:19;1.6;;;1.3;;
68375;SDS011;55318;52.068;5.188;2023-06-14T04:07:55;1.7;;;1.3;;
68375;SDS011;55318;52.068;5.188;2023-06-14T04:11:07;1.9;;;1.2;;
68375;SDS011;55318;52.068;5.188;2023-06-14T04:12:43;1.8;;;1.2;;
68375;SDS011;55318;52.068;5.188;2023-06-14T04:14:19;5.6;;;1.4;;
68375;SDS011;55318;52.068;5.188;2023-06-14T04:17:32;7.0;;;1.3;;
68375;SDS011;55318;52.068;5.188;2023-06-14T04:19:08;2.21;;;1.0;;
68375;SDS011;55318;52.068;5.188;2023-06-14T04:20:44;3.1;;;1.2;;
68375;SDS011;55318;52.068;5.188;2023-06-14T04:23:56;2.1;;;0.9;;
68375;SDS011;55318;52.068;5.188;2023-06-14T04:25:32;3.8;;;1.11;;
68375;SDS011;55318;52.068;5.188;2023-06-14T04:27:08;1.4;;;1.2;;
68375;SDS011;55318;52.068;5.188;2023-06-14T04:30:21;3.4;;;1.8;;
68375;SDS011;55318;52.068;5.188;2023-06-14T04:31:57;2.4;;;1.11;;
68375;SDS011;55318;52.068;5.188;2023-06-14T04:33:33;1.8;;;1.0;;
68375;SDS011;55318;52.068;5.188;2023-06-14T04:35:09;2.8;;;1.5;;
68375;SDS011;55318;52.068;5.188;2023-06-14T04:38:21;2.0;;;1.4;;
68375;SDS011;55318;52.068;5.188;2023-06-14T04:39:58;6.5;;;1.3;;
68375;SDS011;55318;52.068;5.188;2023-06-14T04:41:34;2.21;;;1.2;;
68375;SDS011;55318;52.068;5.188;2023-06-14T04:44:46;3.6;;;2.0;;
68375;SDS011;55318;52.068;5.188;2023-06-14T04:46:22;1.9;;;1.0;;
68375;SDS011;55318;52.068;5.188;2023-06-14T04:47:58;1.11;;;1.0;;
68375;SDS011;55318;52.068;5.188;2023-06-14T04:51:10;2.8;;;1.3;;
68375;SDS011;55318;52.068;5.188;2023-06-14T04:52:47;1.4;;;0.9;;
68375;SDS011;55318;52.068;5.188;2023-06-14T04:54:23;2.31;;;1.11;;
68375;SDS011;55318;52.068;5.188;2023-06-14T04:55:59;1.8;;;1.0;;
68375;SDS011;55318;52.068;5.188;2023-06-14T04:59:11;3.0;;;1.2;;
68375;SDS011;55318;52.068;5.188;2023-06-14T05:00:47;5.11;;;1.8;;
68375;SDS011;55318;52.068;5.188;2023-06-14T05:02:24;1.4;;;1.2;;
68375;SDS011;55318;52.068;5.188;2023-06-14T05:05:37;1.9;;;1.0;;
68375;SDS011;55318;52.068;5.188;2023-06-14T05:07:13;2.5;;;1.0;;
68375;SDS011;55318;52.068;5.188;2023-06-14T05:08:49;1.9;;;0.8;;
68375;SDS011;55318;52.068;5.188;2023-06-14T05:12:01;3.8;;;1.6;;
68375;SDS011;55318;52.068;5.188;2023-06-14T05:13:37;2.7;;;1.5;;
68375;SDS011;55318;52.068;5.188;2023-06-14T05:15:14;1.6;;;1.3;;
68375;SDS011;55318;52.068;5.188;2023-06-14T05:18:26;2.9;;;1.7;;
68375;SDS011;55318;52.068;5.188;2023-06-14T05:20:02;2.1;;;1.2;;
68375;SDS011;55318;52.068;5.188;2023-06-14T05:21:38;3.8;;;1.0;;
68375;SDS011;55318;52.068;5.188;2023-06-14T05:23:14;1.7;;;1.3;;
68375;SDS011;55318;52.068;5.188;2023-06-14T05:26:27;1.6;;;1.0;;
68375;SDS011;55318;52.068;5.188;2023-06-14T05:28:02;1.3;;;1.0;;
68375;SDS011;55318;52.068;5.188;2023-06-14T05:29:39;1.5;;;1.11;;
68375;SDS011;55318;52.068;5.188;2023-06-14T05:32:51;2.5;;;1.2;;
68375;SDS011;55318;52.068;5.188;2023-06-14T05:34:27;2.0;;;1.2;;
68375;SDS011;55318;52.068;5.188;2023-06-14T05:36:03;2.6;;;1.0;;
68375;SDS011;55318;52.068;5.188;2023-06-14T05:39:16;2.8;;;1.4;;
68375;SDS011;55318;52.068;5.188;2023-06-14T05:40:52;1.2;;;1.0;;
68375;SDS011;55318;52.068;5.188;2023-06-14T05:42:28;3.8;;;1.4;;
68375;SDS011;55318;52.068;5.188;2023-06-14T05:45:40;3.8;;;1.3;;
68375;SDS011;55318;52.068;5.188;2023-06-14T05:47:16;1.7;;;1.5;;
68375;SDS011;55318;52.068;5.188;2023-06-14T05:48:52;1.7;;;1.2;;
68375;SDS011;55318;52.068;5.188;2023-06-14T05:50:31;2.7;;;1.9;;
68375;SDS011;55318;52.068;5.188;2023-06-14T05:53:44;4.41;;;2.0;;
68375;SDS011;55318;52.068;5.188;2023-06-14T05:55:20;2.9;;;1.4;;
68375;SDS011;55318;52.068;5.188;2023-06-14T05:56:56;6.7;;;1.6;;
68375;SDS011;55318;52.068;5.188;2023-06-14T06:00:09;2.0;;;1.2;;
68375;SDS011;55318;52.068;5.188;2023-06-14T06:01:46;2.21;;;1.2;;
68375;SDS011;55318;52.068;5.188;2023-06-14T06:03:22;1.9;;;1.2;;
68375;SDS011;55318;52.068;5.188;2023-06-14T06:06:34;1.6;;;0.9;;
68375;SDS011;55318;52.068;5.188;2023-06-14T06:08:10;3.3;;;1.2;;
68375;SDS011;55318;52.068;5.188;2023-06-14T06:09:46;2.21;;;1.2;;
68375;SDS011;55318;52.068;5.188;2023-06-14T06:11:22;3.3;;;1.4;;
68375;SDS011;55318;52.068;5.188;2023-06-14T06:14:35;2.8;;;1.11;;
68375;SDS011;55318;52.068;5.188;2023-06-14T06:16:11;1.7;;;1.5;;
68375;SDS011;55318;52.068;5.188;2023-06-14T06:17:47;4.2;;;1.3;;
68375;SDS011;55318;52.068;5.188;2023-06-14T06:20:59;4.2;;;1.3;;
68375;SDS011;55318;52.068;5.188;2023-06-14T06:22:35;1.5;;;1.2;;
68375;SDS011;55318;52.068;5.188;2023-06-14T06:24:11;2.0;;;1.2;;
68375;SDS011;55318;52.068;5.188;2023-06-14T06:27:24;4.2;;;1.5;;
68375;SDS011;55318;52.068;5.188;2023-06-14T06:29:00;3.7;;;1.4;;
68375;SDS011;55318;52.068;5.188;2023-06-14T06:30:36;1.5;;;1.2;;
68375;SDS011;55318;52.068;5.188;2023-06-14T06:32:12;2.7;;;1.11;;
68375;SDS011;55318;52.068;5.188;2023-06-14T06:35:25;1.2;;;0.9;;
68375;SDS011;55318;52.068;5.188;2023-06-14T06:37:01;1.3;;;0.9;;
68375;SDS011;55318;52.068;5.188;2023-06-14T06:38:38;2.1;;;1.3;;
68375;SDS011;55318;52.068;5.188;2023-06-14T06:41:50;3.4;;;1.4;;
68375;SDS011;55318;52.068;5.188;2023-06-14T06:43:26;1.8;;;1.2;;
68375;SDS011;55318;52.068;5.188;2023-06-14T06:45:02;2.31;;;1.6;;
68375;SDS011;55318;52.068;5.188;2023-06-14T06:48:15;2.9;;;1.7;;
68375;SDS011;55318;52.068;5.188;2023-06-14T06:49:52;1.8;;;1.4;;
68375;SDS011;55318;52.068;5.188;2023-06-14T06:51:28;1.8;;;1.2;;
68375;SDS011;55318;52.068;5.188;2023-06-14T06:54:40;3.2;;;1.4;;
68375;SDS011;55318;52.068;5.188;2023-06-14T06:56:16;7.0;;;1.4;;
68375;SDS011;55318;52.068;5.188;2023-06-14T06:57:52;3.5;;;1.7;;
68375;SDS011;55318;52.068;5.188;2023-06-14T06:59:28;1.5;;;1.3;;
68375;SDS011;55318;52.068;5.188;2023-06-14T07:02:41;2.4;;;1.3;;
68375;SDS011;55318;52.068;5.188;2023-06-14T07:04:17;2.7;;;1.5;;
68375;SDS011;55318;52.068;5.188;2023-06-14T07:05:53;3.1;;;1.7;;
68375;SDS011;55318;52.068;5.188;2023-06-14T07:09:05;4.0;;;1.4;;
68375;SDS011;55318;52.068;5.188;2023-06-14T07:10:41;2.21;;;1.2;;
68375;SDS011;55318;52.068;5.188;2023-06-14T07:12:18;2.7;;;1.0;;
68375;SDS011;55318;52.068;5.188;2023-06-14T07:15:30;4.41;;;1.9;;
68375;SDS011;55318;52.068;5.188;2023-06-14T07:17:06;2.1;;;1.11;;
68375;SDS011;55318;52.068;5.188;2023-06-14T07:18:42;2.1;;;1.4;;
68375;SDS011;55318;52.068;5.188;2023-06-14T07:21:54;1.8;;;0.9;;
68375;SDS011;55318;52.068;5.188;2023-06-14T07:23:31;4.3;;;1.4;;
68375;SDS011;55318;52.068;5.188;2023-06-14T07:25:08;3.9;;;1.4;;
68375;SDS011;55318;52.068;5.188;2023-06-14T07:26:44;3.1;;;1.4;;
68375;SDS011;55318;52.068;5.188;2023-06-14T07:29:56;1.8;;;1.3;;
68375;SDS011;55318;52.068;5.188;2023-06-14T07:31:32;1.5;;;1.2;;
68375;SDS011;55318;52.068;5.188;2023-06-14T07:33:08;1.2;;;1.0;;
68375;SDS011;55318;52.068;5.188;2023-06-14T07:36:21;1.2;;;1.0;;
68375;SDS011;55318;52.068;5.188;2023-06-14T07:37:58;2.8;;;1.6;;
68375;SDS011;55318;52.068;5.188;2023-06-14T07:39:34;3.5;;;1.2;;
68375;SDS011;55318;52.068;5.188;2023-06-14T07:42:46;2.8;;;1.3;;
68375;SDS011;55318;52.068;5.188;2023-06-14T07:44:22;1.7;;;1.4;;
68375;SDS011;55318;52.068;5.188;2023-06-14T07:45:58;4.1;;;1.7;;
68375;SDS011;55318;52.068;5.188;2023-06-14T07:47:35;1.8;;;1.2;;
68375;SDS011;55318;52.068;5.188;2023-06-14T07:50:47;3.5;;;1.4;;
68375;SDS011;55318;52.068;5.188;2023-06-14T07:52:23;2.7;;;1.5;;
68375;SDS011;55318;52.068;5.188;2023-06-14T07:53:59;2.21;;;1.0;;
68375;SDS011;55318;52.068;5.188;2023-06-14T07:57:11;3.8;;;1.3;;
68375;SDS011;55318;52.068;5.188;2023-06-14T07:58:47;3.2;;;1.2;;
68375;SDS011;55318;52.068;5.188;2023-06-14T08:00:24;2.0;;;0.9;;
68375;SDS011;55318;52.068;5.188;2023-06-14T08:03:36;2.4;;;1.6;;
68375;SDS011;55318;52.068;5.188;2023-06-14T08:05:12;2.8;;;1.11;;
68375;SDS011;55318;52.068;5.188;2023-06-14T08:06:49;2.31;;;1.0;;
68375;SDS011;55318;52.068;5.188;2023-06-14T08:10:01;3.0;;;1.8;;
68375;SDS011;55318;52.068;5.188;2023-06-14T08:11:37;2.8;;;1.2;;
68375;SDS011;55318;52.068;5.188;2023-06-14T08:13:14;3.2;;;1.0;;
68375;SDS011;55318;52.068;5.188;2023-06-14T08:14:50;1.11;;;1.0;;
68375;SDS011;55318;52.068;5.188;2023-06-14T08:18:02;2.8;;;1.3;;
68375;SDS011;55318;52.068;5.188;2023-06-14T08:19:38;1.7;;;1.0;;
68375;SDS011;55318;52.068;5.188;2023-06-14T08:21:14;2.9;;;1.3;;
68375;SDS011;55318;52.068;5.188;2023-06-14T08:24:26;2.9;;;1.2;;
68375;SDS011;55318;52.068;5.188;2023-06-14T08:26:02;1.8;;;0.7;;
68375;SDS011;55318;52.068;5.188;2023-06-14T08:27:40;2.5;;;1.0;;
68375;SDS011;55318;52.068;5.188;2023-06-14T08:30:52;1.5;;;1.0;;
68375;SDS011;55318;52.068;5.188;2023-06-14T08:32:28;4.3;;;0.9;;
68375;SDS011;55318;52.068;5.188;2023-06-14T08:34:04;1.5;;;0.9;;
68375;SDS011;55318;52.068;5.188;2023-06-14T08:35:40;1.8;;;1.2;;
68375;SDS011;55318;52.068;5.188;2023-06-14T08:38:53;1.4;;;0.9;;
68375;SDS011;55318;52.068;5.188;2023-06-14T08:40:29;3.0;;;1.0;;
68375;SDS011;55318;52.068;5.188;2023-06-14T08:42:07;4.3;;;1.2;;
68375;SDS011;55318;52.068;5.188;2023-06-14T08:45:22;2.4;;;0.9;;
68375;SDS011;55318;52.068;5.188;2023-06-14T08:47:00;2.0;;;0.8;;
68375;SDS011;55318;52.068;5.188;2023-06-14T08:48:37;2.5;;;1.3;;
68375;SDS011;55318;52.068;5.188;2023-06-14T08:51:51;1.9;;;1.2;;
68375;SDS011;55318;52.068;5.188;2023-06-14T08:53:34;1.0;;;0.8;;
68375;SDS011;55318;52.068;5.188;2023-06-14T08:55:13;2.4;;;1.0;;
68375;SDS011;55318;52.068;5.188;2023-06-14T08:56:50;1.5;;;1.0;;
68375;SDS011;55318;52.068;5.188;2023-06-14T09:00:04;1.5;;;1.0;;
68375;SDS011;55318;52.068;5.188;2023-06-14T09:01:41;1.4;;;0.8;;
68375;SDS011;55318;52.068;5.188;2023-06-14T09:03:17;1.2;;;0.9;;
68375;SDS011;55318;52.068;5.188;2023-06-14T09:06:30;2.0;;;1.2;;
68375;SDS011;55318;52.068;5.188;2023-06-14T09:08:06;4.1;;;1.3;;
68375;SDS011;55318;52.068;5.188;2023-06-14T09:09:42;1.5;;;0.8;;
68375;SDS011;55318;52.068;5.188;2023-06-14T09:11:19;1.5;;;1.0;;
68375;SDS011;55318;52.068;5.188;2023-06-14T09:14:33;1.2;;;0.8;;
68375;SDS011;55318;52.068;5.188;2023-06-14T09:16:09;1.7;;;0.7;;
68375;SDS011;55318;52.068;5.188;2023-06-14T09:17:45;1.7;;;0.7;;
68375;SDS011;55318;52.068;5.188;2023-06-14T09:20:59;1.3;;;0.9;;
68375;SDS011;55318;52.068;5.188;2023-06-14T09:22:35;1.2;;;0.7;;
68375;SDS011;55318;52.068;5.188;2023-06-14T09:24:13;1.11;;;0.9;;
68375;SDS011;55318;52.068;5.188;2023-06-14T09:27:26;1.6;;;1.11;;
68375;SDS011;55318;52.068;5.188;2023-06-14T09:29:04;1.0;;;0.7;;
68375;SDS011;55318;52.068;5.188;2023-06-14T09:30:41;1.7;;;0.7;;
68375;SDS011;55318;52.068;5.188;2023-06-14T09:32:17;1.0;;;0.7;;
68375;SDS011;55318;52.068;5.188;2023-06-14T09:35:30;3.1;;;0.8;;
68375;SDS011;55318;52.068;5.188;2023-06-14T09:37:06;1.6;;;0.7;;
68375;SDS011;55318;52.068;5.188;2023-06-14T09:38:46;1.0;;;0.9;;
68375;SDS011;55318;52.068;5.188;2023-06-14T09:42:15;0.8;;;0.7;;
68375;SDS011;55318;52.068;5.188;2023-06-14T09:43:52;0.5;;;0.5;;
68375;SDS011;55318;52.068;5.188;2023-06-14T09:45:29;3.4;;;0.8;;
68375;SDS011;55318;52.068;5.188;2023-06-14T09:47:05;1.7;;;0.7;;
68375;SDS011;55318;52.068;5.188;2023-06-14T09:50:18;2.21;;;0.8;;
68375;SDS011;55318;52.068;5.188;2023-06-14T09:51:54;1.0;;;0.7;;
68375;SDS011;55318;52.068;5.188;2023-06-14T09:53:33;1.6;;;0.7;;
68375;SDS011;55318;52.068;5.188;2023-06-14T09:55:12;1.8;;;0.7;;
68375;SDS011;55318;52.068;5.188;2023-06-14T09:58:28;1.0;;;0.8;;
68375;SDS011;55318;52.068;5.188;2023-06-14T10:00:06;0.7;;;0.7;;
68375;SDS011;55318;52.068;5.188;2023-06-14T10:01:43;2.6;;;1.11;;
68375;SDS011;55318;52.068;5.188;2023-06-14T10:05:03;0.9;;;0.7;;
68375;SDS011;55318;52.068;5.188;2023-06-14T10:06:43;0.8;;;0.6;;
68375;SDS011;55318;52.068;5.188;2023-06-14T10:08:23;0.6;;;0.6;;
68375;SDS011;55318;52.068;5.188;2023-06-14T10:10:02;0.8;;;0.8;;
68375;SDS011;55318;52.068;5.188;2023-06-14T10:13:16;1.3;;;0.8;;
68375;SDS011;55318;52.068;5.188;2023-06-14T10:14:53;1.4;;;0.5;;
68375;SDS011;55318;52.068;5.188;2023-06-14T10:16:32;1.9;;;1.0;;
68375;SDS011;55318;52.068;5.188;2023-06-14T10:18:14;1.2;;;0.7;;
68375;SDS011;55318;52.068;5.188;2023-06-14T10:21:55;1.0;;;0.9;;
68375;SDS011;55318;52.068;5.188;2023-06-14T10:23:37;1.7;;;0.9;;
68375;SDS011;55318;52.068;5.188;2023-06-14T10:25:33;0.5;;;0.5;;
68375;SDS011;55318;52.068;5.188;2023-06-14T10:27:11;2.1;;;0.6;;
68375;SDS011;55318;52.068;5.188;2023-06-14T10:28:58;2.1;;;0.7;;
68375;SDS011;55318;52.068;5.188;2023-06-14T10:32:11;2.7;;;1.11;;
68375;SDS011;55318;52.068;5.188;2023-06-14T10:33:48;1.5;;;0.9;;
68375;SDS011;55318;52.068;5.188;2023-06-14T10:35:26;1.11;;;0.6;;
68375;SDS011;55318;52.068;5.188;2023-06-14T10:37:02;1.2;;;0.6;;
68375;SDS011;55318;52.068;5.188;2023-06-14T10:40:29;3.8;;;0.7;;
68375;SDS011;55318;52.068;5.188;2023-06-14T10:42:06;2.8;;;0.4;;
68375;SDS011;55318;52.068;5.188;2023-06-14T10:43:43;3.3;;;1.11;;
68375;SDS011;55318;52.068;5.188;2023-06-14T10:46:57;1.5;;;0.7;;
68375;SDS011;55318;52.068;5.188;2023-06-14T10:48:39;0.7;;;0.7;;
68375;SDS011;55318;52.068;5.188;2023-06-14T10:50:16;1.11;;;0.7;;
68375;SDS011;55318;52.068;5.188;2023-06-14T10:51:52;0.6;;;0.6;;
68375;SDS011;55318;52.068;5.188;2023-06-14T10:55:16;1.7;;;0.8;;
68375;SDS011;55318;52.068;5.188;2023-06-14T10:56:53;1.11;;;0.6;;
68375;SDS011;55318;52.068;5.188;2023-06-14T10:58:29;1.0;;;0.5;;
68375;SDS011;55318;52.068;5.188;2023-06-14T11:00:06;1.4;;;0.7;;
68375;SDS011;55318;52.068;5.188;2023-06-14T11:03:43;3.6;;;1.3;;
68375;SDS011;55318;52.068;5.188;2023-06-14T11:05:26;1.0;;;0.9;;
68375;SDS011;55318;52.068;5.188;2023-06-14T11:07:08;1.3;;;1.0;;
68375;SDS011;55318;52.068;5.188;2023-06-14T11:09:08;0.9;;;0.7;;
68375;SDS011;55318;52.068;5.188;2023-06-14T11:12:07;1.8;;;0.6;;
68375;SDS011;55318;52.068;5.188;2023-06-14T11:13:45;1.3;;;0.7;;
68375;SDS011;55318;52.068;5.188;2023-06-14T11:15:27;0.6;;;0.6;;
68375;SDS011;55318;52.068;5.188;2023-06-14T11:17:04;0.9;;;0.9;;
68375;SDS011;55318;52.068;5.188;2023-06-14T11:20:19;1.11;;;0.6;;
68375;SDS011;55318;52.068;5.188;2023-06-14T11:21:55;3.1;;;0.7;;
68375;SDS011;55318;52.068;5.188;2023-06-14T11:23:31;1.5;;;0.6;;
68375;SDS011;55318;52.068;5.188;2023-06-14T11:25:08;1.7;;;0.7;;
68375;SDS011;55318;52.068;5.188;2023-06-14T11:28:23;0.7;;;0.7;;
68375;SDS011;55318;52.068;5.188;2023-06-14T11:29:59;1.3;;;1.0;;
68375;SDS011;55318;52.068;5.188;2023-06-14T11:31:35;0.6;;;0.4;;
68375;SDS011;55318;52.068;5.188;2023-06-14T11:34:52;0.4;;;0.4;;
68375;SDS011;55318;52.068;5.188;2023-06-14T11:36:29;0.5;;;0.5;;
68375;SDS011;55318;52.068;5.188;2023-06-14T11:38:06;3.4;;;0.8;;
68375;SDS011;55318;52.068;5.188;2023-06-14T11:41:20;0.8;;;0.5;;
68375;SDS011;55318;52.068;5.188;2023-06-14T11:43:00;1.0;;;0.9;;
68375;SDS011;55318;52.068;5.188;2023-06-14T11:44:37;0.5;;;0.4;;
68375;SDS011;55318;52.068;5.188;2023-06-14T11:46:13;1.9;;;0.9;;
68375;SDS011;55318;52.068;5.188;2023-06-14T11:49:26;3.5;;;0.7;;
68375;SDS011;55318;52.068;5.188;2023-06-14T11:51:02;1.6;;;0.6;;
68375;SDS011;55318;52.068;5.188;2023-06-14T11:52:38;0.8;;;0.7;;
68375;SDS011;55318;52.068;5.188;2023-06-14T11:55:51;1.2;;;0.7;;
68375;SDS011;55318;52.068;5.188;2023-06-14T11:57:27;0.9;;;0.6;;
68375;SDS011;55318;52.068;5.188;2023-06-14T11:59:03;0.9;;;0.5;;
68375;SDS011;55318;52.068;5.188;2023-06-14T12:00:39;1.8;;;0.9;;
68375;SDS011;55318;52.068;5.188;2023-06-14T12:03:53;0.8;;;0.6;;
68375;SDS011;55318;52.068;5.188;2023-06-14T12:05:32;0.5;;;0.5;;
68375;SDS011;55318;52.068;5.188;2023-06-14T12:07:09;1.9;;;0.8;;
68375;SDS011;55318;52.068;5.188;2023-06-14T12:10:21;0.8;;;0.7;;
68375;SDS011;55318;52.068;5.188;2023-06-14T12:11:59;1.11;;;0.6;;
68375;SDS011;55318;52.068;5.188;2023-06-14T12:13:37;1.4;;;0.7;;
68375;SDS011;55318;52.068;5.188;2023-06-14T12:16:49;1.0;;;0.5;;
68375;SDS011;55318;52.068;5.188;2023-06-14T12:18:33;1.3;;;0.8;;
68375;SDS011;55318;52.068;5.188;2023-06-14T12:20:12;1.0;;;0.6;;
68375;SDS011;55318;52.068;5.188;2023-06-14T12:21:49;2.1;;;0.8;;
68375;SDS011;55318;52.068;5.188;2023-06-14T12:25:01;5.5;;;0.8;;
68375;SDS011;55318;52.068;5.188;2023-06-14T12:26:38;1.5;;;1.0;;
68375;SDS011;55318;52.068;5.188;2023-06-14T12:28:14;1.3;;;0.6;;
68375;SDS011;55318;52.068;5.188;2023-06-14T12:31:35;2.8;;;1.11;;
68375;SDS011;55318;52.068;5.188;2023-06-14T12:33:11;1.3;;;0.9;;
68375;SDS011;55318;52.068;5.188;2023-06-14T12:34:47;1.7;;;0.7;;
68375;SDS011;55318;52.068;5.188;2023-06-14T12:36:23;1.6;;;0.9;;
68375;SDS011;55318;52.068;5.188;2023-06-14T12:39:37;0.8;;;0.6;;
68375;SDS011;55318;52.068;5.188;2023-06-14T12:41:13;0.8;;;0.7;;
68375;SDS011;55318;52.068;5.188;2023-06-14T12:42:49;2.21;;;0.9;;
68375;SDS011;55318;52.068;5.188;2023-06-14T12:46:01;1.11;;;0.5;;
68375;SDS011;55318;52.068;5.188;2023-06-14T12:47:37;0.8;;;0.6;;
68375;SDS011;55318;52.068;5.188;2023-06-14T12:49:13;0.9;;;0.8;;
68375;SDS011;55318;52.068;5.188;2023-06-14T12:52:26;1.6;;;0.9;;
68375;SDS011;55318;52.068;5.188;2023-06-14T12:54:02;1.2;;;0.7;;
68375;SDS011;55318;52.068;5.188;2023-06-14T12:55:38;0.8;;;0.7;;
68375;SDS011;55318;52.068;5.188;2023-06-14T12:57:14;1.5;;;0.7;;